Whitestone, NY (11357)

6:35 AM EST on January 27, 2015 (GMT -0500)
Middletown | Change Station
CLOSE
Current Station
Personal Weather Station
Location: New York, NY
Elevation: 43 ft
Nearby Weather Stations
Active Advisory: Winter Storm Warning Active Notice: Public Information Statement

Elev 43 ft 40.84 °N, 73.83 °W | Updated 6 seconds ago

Snow
Snow
18.9 °F
Feels Like 4 °F
N
15.9
Wind Variable Wind from NW
Gusts 17.0 mph

Today
High -- | Low -- °F
--% Chance of Precip.
Yesterday
High -- | Low -- °F
Precip. -- in
7:10 AM 5:06 PM
First Quarter, 53% visible
Pressure 29.65 in
Visibility 2.5 miles
Clouds Few 2100 ft
Overcast 3700 ft
Windchill 4 °F
Dew Point 16 °F
Humidity 89%
Rainfall 0.00 in
Snow Depth Not available.
UV 0 out of 12
Pollen .10 out of 12
Air Quality Not available.
Flu Activity Not available.
METAR KLGA 271051Z 35022G29KT 2 1/2SM -SN FEW021 OVC037 M06/M09 A2965 RMK AO2 PK WND 34029/1048 SFC VIS 4 VIS 2 R22 SW SLP038 P0000 T10611094 $

More Conditions Fewer Conditions

Pressure 29.65 in
Visibility 2.5 miles
Clouds Few 2100 ft
Overcast 3700 ft
Windchill 4 °F
Dew Point 16 °F
Humidity 89%
Rainfall 0.00 in
Snow Depth Not available.
UV 0 out of 12
Pollen .10 out of 12
Air Quality Not available.
Flu Activity Not available.
METAR KLGA 271051Z 35022G29KT 2 1/2SM -SN FEW021 OVC037 M06/M09 A2965 RMK AO2 PK WND 34029/1048 SFC VIS 4 VIS 2 R22 SW SLP038 P0000 T10611094 $

More Conditions Fewer Conditions

10-Day Weather Forecast

Almanac

Astronomy

Jan. 27, 2015 Rise Set
Actual Time
Civil Twilight
Nautical Twilight
Astronomical Twilight
Moon
Length of Visible Light
Length of Day
Tomorrow will be .
, % of the Moon is Illuminated

Today's Extremes

State Highs State Lows

Community

WunderPhotos

Upload Photos

1,790,564 photos uploaded!

WunderBlogs® & News

Nearby

Air Quality

  Air Quality AQ Index Pollutant
Not available.

Snow Depth

Station Depth Elevation

Earthquake Activity

City Distance Mag. Time & Date
Minimum magnitude displayed is 2.5.

Coastal Water Temperatures

Place Temperature

Nearby Weather Stations